| time (UTC) | temp F | wind direction | speed knots | gust knots | rain 1hr in | rain 24hr in | rain mn in | humidity % | barometer mb |
| 20260906073109 | 64 | 38 | 1.7 | 6.1 | 0.00 | 0.50 | 0.00 | 88 | 1016.4 |
| 20260906071554 | 65 | 90 | 2.6 | 6.1 | 0.00 | 0.50 | 0.00 | 88 | 1016.5 |
| 20260906070059 | 65 | 53 | 2.6 | 6.1 | 0.00 | 0.50 | 0.00 | 88 | 1016.4 |
| 20260906064552 | 65 | 76 | 1.7 | 5.2 | 0.00 | 0.50 | 0.00 | 88 | 1016.4 |
| 20260906063052 | 65 | 79 | 1.7 | 5.2 | 0.00 | 0.50 | 0.00 | 88 | 1016.3 |
| 20260906061553 | 66 | 97 | 2.6 | 7.0 | 0.00 | 0.50 | 0.00 | 88 | 1016.4 |
| 20260906060100 | 67 | 70 | 2.6 | 9.6 | 0.00 | 0.50 | 0.00 | 88 | 1016.4 |
| 20260906054554 | 68 | 71 | 3.5 | 6.1 | 0.00 | 0.50 | 0.00 | 90 | 1016.3 |
| 20260906053059 | 68 | 48 | 1.7 | 5.2 | 0.00 | 0.50 | 0.00 | 91 | 1016.2 |
| 20260906051602 | 69 | 55 | 1.7 | 8.7 | 0.00 | 0.50 | 0.00 | 90 | 1016.2 |
| 20260906050105 | 69 | 53 | 1.7 | 5.2 | 0.00 | 0.50 | 0.00 | 91 | 1016.0 |
| 20260906044552 | 69 | 81 | 1.7 | 7.8 | 0.00 | 0.50 | 0.00 | 90 | 1015.7 |
| 20260906043102 | 70 | 85 | 3.5 | 8.7 | 0.00 | 0.50 | 0.00 | 91 | 1015.7 |
| 20260906041552 | 71 | 65 | 4.3 | 8.7 | 0.00 | 0.50 | 0.00 | 92 | 1015.5 |
| 20260906040055 | 72 | 73 | 2.6 | 7.8 | 0.00 | 0.50 | 0.00 | 92 | 1015.6 |
| 20260906034607 | 72 | 67 | 2.6 | 7.0 | 0.00 | 0.50 | 0.50 | 92 | 1015.7 |
| 20260906033056 | 72 | 71 | 3.5 | 8.7 | 0.00 | 0.50 | 0.50 | 92 | 1015.5 |
| 20260906031553 | 73 | 81 | 5.2 | 10.4 | 0.00 | 0.50 | 0.50 | 92 | 1015.4 |
| 20260906030051 | 73 | 84 | 5.2 | 9.6 | 0.00 | 0.50 | 0.50 | 92 | 1015.5 |
| 20260906024558 | 73 | 80 | 7.0 | 13.0 | 0.00 | 0.50 | 0.50 | 92 | 1015.5 |
| 20260906023051 | 73 | 86 | 5.2 | 10.4 | 0.00 | 0.50 | 0.50 | 92 | 1015.2 |
| 20260906021607 | 73 | 72 | 6.1 | 10.4 | 0.00 | 0.50 | 0.50 | 92 | 1015.2 |
| 20260906020105 | 74 | 80 | 7.8 | 11.3 | 0.00 | 0.50 | 0.50 | 92 | 1015.2 |
| 20260906014553 | 74 | 65 | 6.1 | 11.3 | 0.00 | 0.50 | 0.50 | 92 | 1015.2 |
| 20260906013102 | 74 | 88 | 6.1 | 10.4 | 0.00 | 0.50 | 0.50 | 92 | 1014.8 |
| 20260906011550 | 74 | 78 | 5.2 | 8.7 | 0.00 | 0.50 | 0.50 | 91 | 1014.6 |
| 20260906010058 | 75 | 103 | 3.5 | 7.8 | 0.00 | 0.50 | 0.50 | 91 | 1014.3 |
| 20260906004555 | 75 | 69 | 5.2 | 10.4 | 0.00 | 0.50 | 0.50 | 91 | 1014.4 |
| 20260906003054 | 76 | 90 | 7.0 | 12.2 | 0.00 | 0.50 | 0.50 | 91 | 1014.1 |
| 20260906001553 | 76 | 76 | 4.3 | 13.0 | 0.00 | 0.50 | 0.50 | 92 | 1013.6 |
| 20260906000053 | 76 | 0 | 0.0 | 1.7 | 0.00 | 0.50 | 0.50 | 93 | 1013.8 |
| 20260905234622 | 76 | 0 | 0.0 | 2.6 | 0.00 | 0.50 | 0.50 | 93 | 1013.7 |
| 20260905233051 | 76 | 0 | 1.7 | 3.5 | 0.00 | 0.50 | 0.50 | 92 | 1013.4 |
| 20260905231555 | 76 | 52 | 0.0 | 2.6 | 0.00 | 0.50 | 0.50 | 92 | 1013.5 |
| 20260905230049 | 75 | 146 | 0.9 | 2.6 | 0.00 | 0.50 | 0.50 | 91 | 1013.6 |
| 20260905224553 | 75 | 278 | 2.6 | 5.2 | 0.00 | 0.50 | 0.50 | 91 | 1014.3 |
| 20260905223052 | 75 | 232 | 0.9 | 4.3 | 0.00 | 0.50 | 0.50 | 91 | 1013.8 |
| 20260905221554 | 75 | 0 | 0.9 | 2.6 | 0.10 | 0.50 | 0.50 | 90 | 1013.3 |
| 20260905220105 | 75 | 0 | 0.9 | 4.3 | 0.50 | 0.50 | 0.50 | 88 | 1013.4 |
| 20260905214553 | 75 | 0 | 0.0 | 3.5 | 0.50 | 0.50 | 0.50 | 90 | 1013.3 |
| 20260905213049 | 75 | 173 | 3.5 | 6.1 | 0.50 | 0.50 | 0.50 | 88 | 1013.0 |
| 20260905211556 | 78 | 182 | 3.5 | 20.9 | 0.39 | 0.39 | 0.39 | 79 | 1013.1 |
| 20260905210058 | 87 | 28 | 4.3 | 7.0 | 0.00 | 0.00 | 0.00 | 73 | 1012.7 |
| 20260905204553 | 88 | 302 | 2.6 | 8.7 | 0.00 | 0.00 | 0.00 | 72 | 1012.8 |
| 20260905203108 | 88 | 281 | 2.6 | 7.8 | 0.00 | 0.00 | 0.00 | 72 | 1013.1 |
| 20260905201552 | 86 | 304 | 3.5 | 8.7 | 0.00 | 0.00 | 0.00 | 73 | 1013.4 |
| 20260905200059 | 87 | 307 | 4.3 | 9.6 | 0.00 | 0.00 | 0.00 | 71 | 1013.5 |
| 20260905194558 | 87 | 346 | 3.5 | 8.7 | 0.00 | 0.00 | 0.00 | 71 | 1013.5 |
| 20260905193051 | 87 | 328 | 1.7 | 9.6 | 0.00 | 0.00 | 0.00 | 70 | 1013.6 |
| 20260905191548 | 87 | 302 | 2.6 | 9.6 | 0.00 | 0.00 | 0.00 | 72 | 1013.9 |
| 20260905190048 | 86 | 311 | 4.3 | 8.7 | 0.00 | 0.00 | 0.00 | 69 | 1014.0 |
| 20260905184602 | 86 | 287 | 4.3 | 8.7 | 0.00 | 0.00 | 0.00 | 69 | 1014.2 |
| 20260905183052 | 86 | 277 | 5.2 | 11.3 | 0.00 | 0.00 | 0.00 | 71 | 1014.5 |
| 20260905181554 | 85 | 287 | 6.1 | 11.3 | 0.00 | 0.00 | 0.00 | 71 | 1014.6 |
| 20260905174556 | 84 | 244 | 5.2 | 14.8 | 0.00 | 0.00 | 0.00 | 71 | 1014.8 |
| 20260905173053 | 84 | 263 | 4.3 | 9.6 | 0.00 | 0.00 | 0.00 | 73 | 1014.6 |
| 20260905171607 | 83 | 269 | 4.3 | 10.4 | 0.00 | 0.00 | 0.00 | 72 | 1014.9 |
| 20260905170057 | 83 | 230 | 6.1 | 11.3 | 0.00 | 0.00 | 0.00 | 73 | 1015.0 |
| 20260905164556 | 82 | 292 | 5.2 | 10.4 | 0.00 | 0.00 | 0.00 | 77 | 1015.3 |
| 20260905163055 | 80 | 289 | 1.7 | 7.0 | 0.00 | 0.00 | 0.00 | 78 | 1015.7 |
| 20260905161547 | 79 | 100 | 2.6 | 5.2 | 0.00 | 0.00 | 0.00 | 83 | 1016.1 |
| 20260905160107 | 77 | 142 | 2.6 | 6.1 | 0.00 | 0.00 | 0.00 | 82 | 1015.9 |
| 20260905154615 | 78 | 13 | 4.3 | 7.8 | 0.00 | 0.00 | 0.00 | 79 | 1016.5 |
| 20260905153048 | 79 | 292 | 2.6 | 7.0 | 0.00 | 0.00 | 0.00 | 76 | 1015.8 |
| 20260905151548 | 79 | 215 | 3.5 | 7.8 | 0.00 | 0.00 | 0.00 | 76 | 1015.4 |
| 20260905150104 | 78 | 211 | 2.6 | 9.6 | 0.00 | 0.00 | 0.00 | 79 | 1015.3 |
| 20260905144550 | 77 | 231 | 3.5 | 10.4 | 0.00 | 0.00 | 0.00 | 79 | 1015.2 |
| 20260905143056 | 76 | 221 | 3.5 | 9.6 | 0.00 | 0.00 | 0.00 | 80 | 1015.2 |
| 20260905141547 | 76 | 213 | 3.5 | 8.7 | 0.00 | 0.00 | 0.00 | 80 | 1015.0 |
| 20260905140057 | 75 | 203 | 0.9 | 7.8 | 0.00 | 0.00 | 0.00 | 83 | 1015.4 |
| 20260905134550 | 74 | 177 | 2.6 | 7.8 | 0.00 | 0.00 | 0.00 | 83 | 1015.2 |
| 20260905133048 | 72 | 192 | 4.3 | 8.7 | 0.00 | 0.00 | 0.00 | 85 | 1015.3 |
| 20260905131556 | 71 | 196 | 3.5 | 7.8 | 0.00 | 0.00 | 0.00 | 87 | 1015.8 |
| 20260905130053 | 69 | 186 | 5.2 | 8.7 | 0.00 | 0.00 | 0.00 | 89 | 1016.0 |
| 20260905124550 | 69 | 136 | 5.2 | 8.7 | 0.00 | 0.00 | 0.00 | 90 | 1016.1 |
| 20260905123048 | 68 | 147 | 1.7 | 7.0 | 0.00 | 0.00 | 0.00 | 91 | 1016.2 |
| 20260905121552 | 68 | 113 | 1.7 | 6.1 | 0.00 | 0.00 | 0.00 | 91 | 1015.9 |
| 20260905114605 | 68 | 150 | 3.5 | 7.8 | 0.00 | 0.00 | 0.00 | 90 | 1015.4 |
| 20260905113050 | 68 | 116 | 4.3 | 9.6 | 0.00 | 0.00 | 0.00 | 89 | 1015.6 |
| 20260905111620 | 68 | 128 | 5.2 | 9.6 | 0.00 | 0.00 | 0.00 | 89 | 1015.6 |
| 20260905110108 | 69 | 127 | 6.1 | 11.3 | 0.00 | 0.00 | 0.00 | 89 | 1015.9 |
| 20260905104615 | 69 | 98 | 5.2 | 12.2 | 0.00 | 0.00 | 0.00 | 88 | 1016.0 |
| 20260905103050 | 69 | 93 | 7.8 | 13.0 | 0.00 | 0.00 | 0.00 | 88 | 1016.1 |
| 20260905101551 | 69 | 67 | 5.2 | 12.2 | 0.00 | 0.00 | 0.00 | 88 | 1016.7 |
| 20260905100058 | 70 | 57 | 4.3 | 13.0 | 0.00 | 0.00 | 0.00 | 87 | 1016.3 |
| 20260905094702 | 70 | 77 | 9.6 | 15.6 | 0.00 | 0.00 | 0.00 | 85 | 1016.3 |
| 20260905093059 | 70 | 75 | 10.4 | 16.5 | 0.00 | 0.00 | 0.00 | 84 | 1016.2 |
| 20260905091556 | 71 | 78 | 13.0 | 22.6 | 0.00 | 0.00 | 0.00 | 84 | 1016.2 |
| 20260905090058 | 73 | 114 | 7.0 | 13.9 | 0.00 | 0.00 | 0.00 | 94 | 1015.7 |
| 20260905084603 | 73 | 0 | 0.0 | 0.0 | 0.00 | 0.00 | 0.00 | 92 | 1015.0 |
| 20260905083049 | 73 | 0 | 0.0 | 0.0 | 0.00 | 0.00 | 0.00 | 93 | 1014.7 |
| 20260905081603 | 73 | 0 | 0.0 | 2.6 | 0.00 | 0.00 | 0.00 | 92 | 1014.5 |
| 20260905080104 | 74 | 201 | 0.9 | 2.6 | 0.00 | 0.00 | 0.00 | 92 | 1014.2 |
| 20260905074559 | 74 | 196 | 0.0 | 1.7 | 0.00 | 0.00 | 0.00 | 90 | 1014.5 |